createdAt,value
2023-02-08T00:00:59.004Z,15.66
2023-02-08T00:02:30.534Z,15.86
2023-02-08T00:04:02.025Z,16.27
2023-02-08T00:05:38.394Z,16.66
2023-02-08T00:07:09.799Z,16.02
2023-02-08T00:08:41.179Z,15.86
2023-02-08T00:10:12.629Z,15.84
2023-02-08T00:11:44.082Z,15.58
2023-02-08T00:13:15.934Z,15.45
2023-02-08T00:14:47.594Z,15.34
2023-02-08T00:16:19.096Z,15.15
2023-02-08T00:17:50.489Z,15.65
2023-02-08T00:19:21.892Z,16.05
2023-02-08T00:20:53.578Z,16.17
2023-02-08T00:22:25.289Z,16.62
2023-02-08T00:23:56.754Z,17.16
2023-02-08T00:25:28.334Z,18.14
2023-02-08T00:26:59.612Z,17.12
2023-02-08T00:28:30.943Z,16.99
2023-02-08T00:30:02.430Z,16.70
2023-02-08T00:31:34.170Z,16.10
2023-02-08T00:33:05.775Z,16.54
2023-02-08T00:34:37.538Z,16.17
2023-02-08T00:36:09.478Z,15.68
2023-02-08T00:37:40.855Z,15.51
2023-02-08T00:39:12.230Z,15.73
2023-02-08T00:40:43.711Z,15.91
2023-02-08T00:42:15.124Z,16.08
2023-02-08T00:43:51.436Z,15.51
2023-02-08T00:45:22.702Z,15.79
2023-02-08T00:46:54.134Z,15.71
2023-02-08T00:48:25.774Z,15.91
2023-02-08T00:49:58.098Z,15.80
2023-02-08T00:51:29.359Z,15.67
2023-02-08T00:53:00.757Z,15.77
2023-02-08T00:54:32.042Z,16.24
2023-02-08T00:56:03.269Z,17.38
2023-02-08T00:57:34.823Z,17.60
2023-02-08T00:59:06.160Z,17.99
2023-02-08T01:00:37.998Z,18.44
2023-02-08T01:02:09.765Z,18.18
2023-02-08T01:03:41.145Z,17.71
2023-02-08T01:05:12.643Z,17.74
2023-02-08T01:06:44.159Z,18.24
2023-02-08T01:08:15.824Z,17.99
2023-02-08T01:09:57.163Z,18.06
2023-02-08T01:11:28.364Z,17.92
2023-02-08T01:12:59.762Z,18.10
2023-02-08T01:14:31.143Z,17.84
2023-02-08T01:16:03.117Z,18.02
2023-02-08T01:17:35.006Z,17.91
2023-02-08T01:19:06.258Z,18.76
2023-02-08T01:20:37.946Z,18.84
2023-02-08T01:22:09.436Z,19.52
2023-02-08T01:24:02.135Z,19.36
2023-02-08T01:25:33.424Z,19.43
2023-02-08T01:27:04.979Z,18.99
2023-02-08T01:28:36.422Z,17.90
2023-02-08T01:30:07.630Z,16.55
2023-02-08T01:31:38.834Z,15.36
2023-02-08T01:33:10.739Z,14.80
2023-02-08T01:34:44.032Z,14.72
2023-02-08T01:36:15.739Z,14.07
2023-02-08T01:37:47.391Z,13.42
2023-02-08T01:39:18.682Z,12.89
2023-02-08T01:40:50.155Z,12.64
2023-02-08T01:42:21.552Z,12.68
2023-02-08T01:43:52.951Z,12.68
2023-02-08T01:45:24.361Z,12.96
2023-02-08T01:46:55.842Z,12.91
2023-02-08T01:48:27.173Z,12.36
2023-02-08T01:49:58.979Z,13.03
2023-02-08T01:51:30.549Z,12.75
2023-02-08T01:53:02.004Z,13.08
2023-02-08T01:54:38.476Z,12.76
2023-02-08T01:56:10.164Z,12.41
2023-02-08T01:57:41.535Z,12.33
2023-02-08T01:59:12.795Z,12.52
2023-02-08T02:00:44.281Z,12.24
2023-02-08T02:02:15.989Z,12.60
2023-02-08T02:03:47.387Z,12.45
2023-02-08T02:05:18.577Z,12.41
2023-02-08T02:06:49.784Z,12.13
2023-02-08T02:08:21.273Z,12.13
2023-02-08T02:09:52.571Z,11.90
2023-02-08T02:11:24.025Z,12.67
2023-02-08T02:12:55.400Z,11.76
2023-02-08T02:14:26.811Z,11.24
2023-02-08T02:15:58.699Z,10.29
2023-02-08T02:17:29.997Z,10.68
2023-02-08T02:19:01.581Z,10.18
2023-02-08T02:20:33.775Z,9.34
2023-02-08T02:22:05.085Z,9.91
2023-02-08T02:23:36.601Z,10.31
2023-02-08T02:25:08.078Z,10.62
2023-02-08T02:26:39.379Z,10.70
2023-02-08T02:28:10.726Z,10.77
2023-02-08T02:29:42.049Z,10.60
2023-02-08T02:31:13.394Z,10.82
2023-02-08T02:32:44.717Z,10.87
2023-02-08T02:34:16.366Z,11.40
2023-02-08T02:35:52.993Z,11.50
2023-02-08T02:37:24.170Z,11.58
2023-02-08T02:38:55.490Z,11.78
2023-02-08T02:40:27.095Z,12.09
2023-02-08T02:41:58.602Z,12.47
2023-02-08T02:43:30.071Z,12.71
2023-02-08T02:45:01.719Z,12.29
2023-02-08T02:46:33.276Z,12.54
2023-02-08T02:48:05.198Z,11.68
2023-02-08T02:49:36.671Z,10.89
2023-02-08T02:51:08.112Z,10.12
2023-02-08T02:52:39.730Z,10.52
2023-02-08T02:54:11.195Z,10.22
2023-02-08T02:55:42.658Z,10.00
2023-02-08T02:57:14.210Z,10.16
2023-02-08T02:58:45.663Z,10.38
2023-02-08T03:00:17.137Z,10.88
2023-02-08T03:01:48.819Z,11.17
2023-02-08T03:03:20.147Z,10.72
2023-02-08T03:04:52.031Z,11.07
2023-02-08T03:06:23.547Z,11.30
2023-02-08T03:07:55.155Z,11.11
2023-02-08T03:09:26.703Z,11.51
2023-02-08T03:10:58.521Z,11.34
2023-02-08T03:12:29.782Z,10.88
2023-02-08T03:14:01.096Z,11.16
2023-02-08T03:15:32.475Z,11.29
2023-02-08T03:17:05.143Z,11.77
2023-02-08T03:18:36.633Z,11.52
2023-02-08T03:20:07.956Z,11.76
2023-02-08T03:21:39.337Z,11.79
2023-02-08T03:23:10.714Z,11.14
2023-02-08T03:24:43.070Z,11.58
2023-02-08T03:26:14.403Z,11.31
2023-02-08T03:27:45.632Z,11.27
2023-02-08T03:29:18.189Z,11.14
2023-02-08T03:31:26.641Z,11.08
2023-02-08T03:32:58.247Z,10.76
2023-02-08T03:34:41.708Z,10.66
2023-02-08T03:36:18.980Z,10.73
2023-02-08T03:38:01.971Z,10.19
2023-02-08T03:39:43.273Z,9.63
2023-02-08T03:41:25.562Z,9.71
2023-02-08T03:43:19.429Z,9.87
2023-02-08T03:45:00.895Z,9.68
2023-02-08T03:46:32.093Z,9.57
2023-02-08T03:48:36.989Z,9.79
2023-02-08T03:50:24.731Z,9.62
2023-02-08T03:51:56.435Z,9.55
2023-02-08T03:53:28.002Z,9.71
2023-02-08T03:55:19.370Z,9.07
2023-02-08T03:56:50.658Z,9.29
2023-02-08T03:59:03.481Z,9.45
2023-02-08T04:00:44.837Z,9.38
2023-02-08T04:02:31.351Z,9.57
2023-02-08T04:04:25.023Z,9.62
2023-02-08T04:06:06.602Z,10.00
2023-02-08T04:07:37.954Z,9.84
2023-02-08T04:09:09.805Z,9.87
2023-02-08T04:10:41.945Z,10.26
2023-02-08T04:12:23.647Z,10.00
2023-02-08T04:16:29.656Z,9.80
2023-02-08T04:18:01.591Z,10.04
2023-02-08T04:19:33.124Z,10.29
2023-02-08T04:21:04.460Z,9.95
2023-02-08T04:22:36.149Z,9.82
2023-02-08T04:24:28.032Z,9.83
2023-02-08T04:25:59.610Z,9.70
2023-02-08T04:27:31.748Z,9.90
2023-02-08T04:29:03.842Z,9.15
2023-02-08T04:30:40.995Z,9.68
2023-02-08T04:32:13.009Z,9.65
2023-02-08T04:33:44.560Z,10.26
2023-02-08T04:35:30.938Z,10.00
2023-02-08T04:37:29.156Z,10.22
2023-02-08T04:39:09.574Z,9.97
2023-02-08T04:41:07.157Z,10.24
2023-02-08T04:42:49.722Z,10.16
2023-02-08T04:44:30.914Z,10.22
2023-02-08T04:46:02.315Z,10.04
2023-02-08T04:47:33.580Z,9.76
2023-02-08T04:49:05.227Z,9.61
2023-02-08T04:50:36.450Z,10.07
2023-02-08T04:52:28.346Z,9.77
2023-02-08T04:54:19.060Z,10.00
2023-02-08T04:55:50.692Z,9.75
2023-02-08T04:57:22.209Z,9.98
2023-02-08T04:58:53.973Z,10.02
2023-02-08T05:00:35.467Z,9.94
2023-02-08T05:02:06.703Z,9.90
2023-02-08T05:04:10.494Z,10.27
2023-02-08T05:05:41.808Z,10.60
2023-02-08T05:07:13.058Z,10.45
2023-02-08T05:08:44.975Z,10.43
2023-02-08T05:10:16.661Z,10.17
2023-02-08T05:11:48.192Z,10.13
2023-02-08T05:13:19.487Z,9.80
2023-02-08T05:14:50.874Z,9.85
2023-02-08T05:16:22.165Z,10.16
2023-02-08T05:17:53.443Z,9.98
2023-02-08T05:19:24.744Z,9.92
2023-02-08T05:20:56.155Z,9.98
2023-02-08T05:22:27.435Z,10.35
2023-02-08T05:23:59.440Z,10.78
2023-02-08T05:25:30.960Z,10.12
2023-02-08T05:27:02.857Z,10.38
2023-02-08T05:28:34.291Z,10.58
2023-02-08T05:30:05.604Z,10.24
2023-02-08T05:31:38.331Z,10.39
2023-02-08T05:33:09.792Z,10.09
2023-02-08T05:34:41.220Z,10.41
2023-02-08T05:36:12.760Z,10.26
2023-02-08T05:37:49.496Z,10.06
2023-02-08T05:39:21.057Z,10.10
2023-02-08T05:40:52.590Z,9.85
2023-02-08T05:42:24.016Z,10.40
2023-02-08T05:43:55.666Z,10.07
2023-02-08T05:45:42.347Z,9.47
2023-02-08T05:47:18.851Z,9.42
2023-02-08T05:48:50.308Z,9.26
2023-02-08T05:50:21.920Z,9.37
2023-02-08T05:51:53.701Z,8.59
2023-02-08T05:53:31.359Z,9.17
2023-02-08T05:55:02.749Z,9.34
2023-02-08T05:56:34.139Z,8.45
2023-02-08T05:58:31.240Z,9.18
2023-02-08T06:00:03.005Z,8.68
2023-02-08T06:01:34.288Z,8.90
2023-02-08T06:03:05.582Z,8.65
2023-02-08T06:04:39.019Z,8.41
2023-02-08T06:06:10.457Z,8.86
2023-02-08T06:07:41.756Z,8.72
2023-02-08T06:09:13.059Z,8.75
2023-02-08T06:10:44.278Z,8.49
2023-02-08T06:12:16.916Z,8.97
2023-02-08T06:13:48.663Z,8.90
2023-02-08T06:15:20.065Z,8.74
2023-02-08T06:16:51.367Z,8.99
2023-02-08T06:18:22.724Z,8.97
2023-02-08T06:19:53.926Z,8.95
2023-02-08T06:21:25.397Z,8.99
2023-02-08T06:22:56.773Z,8.64
2023-02-08T06:24:28.122Z,8.70
2023-02-08T06:25:59.640Z,9.55
2023-02-08T06:27:31.559Z,9.23
2023-02-08T06:29:02.852Z,9.07
2023-02-08T06:30:34.676Z,8.72
2023-02-08T06:32:06.486Z,9.12
2023-02-08T06:33:38.482Z,8.72
2023-02-08T06:35:10.281Z,8.89
2023-02-08T06:36:41.755Z,9.08
2023-02-08T06:38:13.104Z,9.04
2023-02-08T06:39:44.416Z,9.32
2023-02-08T06:41:16.977Z,9.35
2023-02-08T06:42:48.463Z,9.31
2023-02-08T06:44:20.047Z,9.33
2023-02-08T06:45:51.368Z,9.49
2023-02-08T06:47:22.937Z,9.31
2023-02-08T06:48:54.412Z,9.89
2023-02-08T06:50:26.084Z,9.42
2023-02-08T06:51:57.748Z,9.17
2023-02-08T06:53:29.319Z,9.44
2023-02-08T06:55:01.079Z,9.53
2023-02-08T06:56:37.358Z,9.54
2023-02-08T06:58:08.707Z,9.53
2023-02-08T06:59:40.320Z,9.58
2023-02-08T07:01:11.611Z,10.08
2023-02-08T07:02:42.981Z,10.12
2023-02-08T07:04:14.684Z,10.03
2023-02-08T07:06:03.488Z,10.46
2023-02-08T07:07:35.353Z,10.40
2023-02-08T07:09:06.890Z,10.48
2023-02-08T07:10:38.794Z,10.29
2023-02-08T07:12:10.271Z,9.94
2023-02-08T07:13:41.939Z,10.58
2023-02-08T07:15:13.225Z,10.16
2023-02-08T07:16:45.058Z,9.99
2023-02-08T07:18:16.923Z,10.25
2023-02-08T07:19:48.234Z,9.88
2023-02-08T07:21:19.709Z,9.47
2023-02-08T07:22:51.387Z,9.29
2023-02-08T07:24:22.775Z,9.18
2023-02-08T07:25:54.480Z,8.37
2023-02-08T07:27:26.137Z,8.43
2023-02-08T07:28:57.615Z,8.59
2023-02-08T07:30:34.339Z,8.25
2023-02-08T07:32:06.006Z,8.35
2023-02-08T07:33:37.262Z,7.98
2023-02-08T07:35:08.878Z,8.38
2023-02-08T07:36:40.294Z,8.56
2023-02-08T07:38:11.700Z,8.98
2023-02-08T07:39:43.290Z,9.48
2023-02-08T07:41:14.660Z,9.54
2023-02-08T07:42:46.311Z,10.01
2023-02-08T07:44:17.572Z,9.91
2023-02-08T07:45:49.547Z,9.72
2023-02-08T07:47:20.835Z,10.10
2023-02-08T07:48:58.247Z,11.06
2023-02-08T07:50:34.631Z,16.79
2023-02-08T07:52:06.164Z,14.24
2023-02-08T07:53:42.474Z,12.11
2023-02-08T07:55:13.881Z,11.68
2023-02-08T07:56:46.309Z,10.93
2023-02-08T07:58:17.782Z,10.56
2023-02-08T07:59:49.032Z,10.33
2023-02-08T08:01:22.548Z,9.92
2023-02-08T08:02:54.275Z,9.81
2023-02-08T08:04:30.541Z,9.77
2023-02-08T08:06:02.026Z,10.05
2023-02-08T08:07:33.538Z,9.58
2023-02-08T08:09:04.947Z,9.29
2023-02-08T08:10:36.205Z,8.48
2023-02-08T08:12:23.420Z,8.18
2023-02-08T08:13:54.735Z,8.21
2023-02-08T08:15:25.964Z,8.51
2023-02-08T08:16:57.333Z,7.66
2023-02-08T08:18:28.697Z,7.78
2023-02-08T08:19:59.988Z,8.49
2023-02-08T08:21:31.156Z,7.88
2023-02-08T08:23:07.433Z,7.76
2023-02-08T08:24:38.701Z,8.04
2023-02-08T08:26:09.864Z,8.25
2023-02-08T08:27:41.309Z,8.23
2023-02-08T08:29:13.650Z,8.68
2023-02-08T08:30:45.125Z,8.64
2023-02-08T08:32:16.472Z,9.07
2023-02-08T08:33:47.939Z,8.72
2023-02-08T08:35:19.658Z,8.66
2023-02-08T08:36:51.228Z,8.39
2023-02-08T08:38:22.608Z,9.11
2023-02-08T08:39:59.023Z,8.34
2023-02-08T08:41:30.209Z,8.61
2023-02-08T08:43:01.868Z,8.18
2023-02-08T08:44:33.301Z,8.26
2023-02-08T08:46:04.731Z,8.76
2023-02-08T08:47:36.011Z,8.18
2023-02-08T08:49:22.390Z,8.35
2023-02-08T08:51:03.560Z,8.16
2023-02-08T08:52:34.977Z,8.36
2023-02-08T08:54:06.378Z,8.40
2023-02-08T08:55:37.634Z,8.57
2023-02-08T08:57:08.831Z,8.07
2023-02-08T08:58:45.150Z,7.83
2023-02-08T09:00:16.756Z,7.77
2023-02-08T09:01:48.076Z,8.00
2023-02-08T09:03:19.822Z,7.64
2023-02-08T09:04:51.149Z,8.00
2023-02-08T09:06:22.333Z,7.41
2023-02-08T09:07:53.561Z,7.50
2023-02-08T09:09:24.848Z,7.52
2023-02-08T09:10:56.470Z,7.45
2023-02-08T09:12:27.755Z,7.45
2023-02-08T09:13:59.181Z,7.40
2023-02-08T09:15:30.624Z,7.08
2023-02-08T09:17:01.809Z,7.20
2023-02-08T09:18:33.280Z,7.17
2023-02-08T09:20:04.980Z,6.63
2023-02-08T09:21:36.481Z,6.85
2023-02-08T09:23:07.647Z,7.15
2023-02-08T09:24:38.969Z,7.06
2023-02-08T09:26:10.450Z,7.16
2023-02-08T09:27:41.878Z,7.19
2023-02-08T09:29:13.165Z,7.08
2023-02-08T09:30:44.792Z,7.14
2023-02-08T09:32:16.108Z,7.65
2023-02-08T09:33:47.411Z,8.55
2023-02-08T09:35:19.226Z,7.93
2023-02-08T09:36:50.643Z,7.57
2023-02-08T09:38:21.986Z,6.76
2023-02-08T09:39:53.157Z,7.09
2023-02-08T09:41:24.467Z,6.55
2023-02-08T09:42:55.785Z,6.33
2023-02-08T09:44:27.018Z,6.26
2023-02-08T09:46:00.410Z,6.32
2023-02-08T09:47:31.812Z,5.84
2023-02-08T09:49:03.126Z,6.18
2023-02-08T09:50:34.449Z,6.19
2023-02-08T09:52:05.640Z,6.09
2023-02-08T09:53:36.981Z,5.93
2023-02-08T09:55:08.283Z,5.68
2023-02-08T09:56:39.524Z,5.73
2023-02-08T09:58:11.248Z,5.69
2023-02-08T09:59:42.703Z,5.40
2023-02-08T10:01:14.050Z,5.59
2023-02-08T10:02:45.598Z,5.15
2023-02-08T10:04:17.232Z,5.03
2023-02-08T10:05:49.163Z,4.98
2023-02-08T10:07:20.850Z,5.25
2023-02-08T10:08:52.319Z,5.17
2023-02-08T10:10:23.821Z,4.92
2023-02-08T10:11:57.395Z,4.88
2023-02-08T10:13:40.574Z,4.87
2023-02-08T10:15:12.778Z,4.87
2023-02-08T10:16:44.241Z,4.63
2023-02-08T10:18:15.785Z,4.86
2023-02-08T10:19:47.124Z,4.64
2023-02-08T10:21:18.632Z,4.50
2023-02-08T10:22:49.956Z,4.24
2023-02-08T10:24:21.670Z,4.14
2023-02-08T10:25:53.197Z,4.21
2023-02-08T10:27:24.752Z,3.99
2023-02-08T10:28:56.878Z,3.78
2023-02-08T10:30:28.270Z,3.41
2023-02-08T10:31:59.797Z,3.55
2023-02-08T10:33:31.187Z,3.33
2023-02-08T10:35:02.445Z,3.71
2023-02-08T10:36:33.685Z,3.55
2023-02-08T10:38:05.190Z,3.77
2023-02-08T10:39:36.559Z,3.56
2023-02-08T10:41:08.309Z,3.46
2023-02-08T10:42:39.913Z,3.63
2023-02-08T10:44:11.157Z,3.57
2023-02-08T10:45:42.857Z,3.45
2023-02-08T10:47:14.260Z,3.57
2023-02-08T10:48:45.471Z,3.92
2023-02-08T10:50:16.894Z,3.57
2023-02-08T10:51:48.341Z,3.36
2023-02-08T10:53:19.837Z,3.20
2023-02-08T10:54:51.144Z,2.94
2023-02-08T10:56:22.412Z,3.25
2023-02-08T10:57:53.799Z,3.22
2023-02-08T10:59:26.280Z,3.20
2023-02-08T11:00:57.781Z,2.85
2023-02-08T11:02:29.302Z,3.15
2023-02-08T11:04:00.891Z,3.18
2023-02-08T11:05:32.292Z,3.44
2023-02-08T11:07:03.508Z,3.39
2023-02-08T11:08:35.051Z,3.56
2023-02-08T11:10:11.406Z,3.11
2023-02-08T11:11:42.954Z,3.25
2023-02-08T11:13:39.742Z,3.44
2023-02-08T11:15:11.018Z,3.53
2023-02-08T11:16:42.781Z,3.75
2023-02-08T11:18:14.042Z,3.18
2023-02-08T11:19:45.634Z,3.24
2023-02-08T11:21:16.985Z,3.47
2023-02-08T11:22:48.276Z,3.38
2023-02-08T11:24:20.873Z,3.62
2023-02-08T11:25:52.146Z,3.68
2023-02-08T11:27:23.448Z,3.21
2023-02-08T11:28:54.895Z,3.18
2023-02-08T11:30:26.320Z,3.32
2023-02-08T11:31:57.944Z,3.28
2023-02-08T11:33:29.270Z,3.14
2023-02-08T11:35:00.868Z,3.06
2023-02-08T11:36:32.708Z,2.81
2023-02-08T11:38:04.311Z,3.14
2023-02-08T11:39:35.982Z,3.06
2023-02-08T11:41:07.382Z,3.08
2023-02-08T11:42:38.688Z,3.39
2023-02-08T11:44:10.308Z,3.00
2023-02-08T11:45:41.825Z,3.16
2023-02-08T11:47:13.321Z,3.24
2023-02-08T11:48:50.046Z,3.07
2023-02-08T11:50:21.340Z,3.14
2023-02-08T11:51:52.882Z,3.18
2023-02-08T11:53:25.186Z,3.13
2023-02-08T11:54:56.631Z,3.38
2023-02-08T11:56:27.986Z,3.23
2023-02-08T11:58:06.894Z,3.14
2023-02-08T11:59:38.167Z,3.39
2023-02-08T12:01:14.714Z,3.01
2023-02-08T12:02:46.097Z,3.26
2023-02-08T12:04:17.419Z,2.95
2023-02-08T12:05:48.728Z,2.90
2023-02-08T12:07:20.296Z,3.23
2023-02-08T12:08:52.037Z,2.98
2023-02-08T12:10:23.477Z,2.99
2023-02-08T12:11:54.831Z,2.96
2023-02-08T12:13:26.167Z,2.92
2023-02-08T12:14:57.510Z,2.88
2023-02-08T12:16:30.973Z,2.82
2023-02-08T12:18:03.903Z,2.85
2023-02-08T12:19:35.183Z,3.11
2023-02-08T12:21:06.585Z,2.88
2023-02-08T12:22:37.928Z,2.84
2023-02-08T12:24:09.551Z,2.84
2023-02-08T12:25:41.178Z,2.73
2023-02-08T12:27:12.763Z,2.82
2023-02-08T12:28:44.255Z,2.73
2023-02-08T12:30:15.696Z,2.76
2023-02-08T12:31:47.119Z,2.67
2023-02-08T12:33:18.531Z,2.57
2023-02-08T12:34:49.928Z,2.83
2023-02-08T12:36:21.612Z,2.74
2023-02-08T12:37:53.058Z,2.97
2023-02-08T12:39:26.169Z,2.80
2023-02-08T12:40:57.790Z,2.77
2023-02-08T12:42:29.301Z,2.73
2023-02-08T12:44:00.881Z,2.48
2023-02-08T12:45:32.214Z,2.26
2023-02-08T12:47:03.541Z,2.72
2023-02-08T12:48:34.958Z,2.54
2023-02-08T12:50:06.389Z,2.30
2023-02-08T12:51:37.787Z,2.61
2023-02-08T12:53:09.103Z,2.41
2023-02-08T12:54:45.739Z,2.60
2023-02-08T12:56:17.265Z,2.55
2023-02-08T12:57:48.931Z,2.49
2023-02-08T12:59:20.354Z,2.36
2023-02-08T13:00:51.712Z,2.58
2023-02-08T13:02:23.177Z,2.69
2023-02-08T13:03:54.699Z,2.58
2023-02-08T13:05:26.921Z,2.46
2023-02-08T13:06:58.314Z,2.45
2023-02-08T13:08:29.770Z,2.52
2023-02-08T13:10:01.092Z,2.47
2023-02-08T13:11:32.373Z,2.42
2023-02-08T13:13:03.810Z,2.49
2023-02-08T13:14:35.190Z,2.53
2023-02-08T13:16:06.902Z,2.52
2023-02-08T13:17:38.196Z,2.45
2023-02-08T13:19:10.790Z,2.38
2023-02-08T13:20:46.565Z,2.47
2023-02-08T13:22:20.744Z,2.58
2023-02-08T13:23:54.827Z,2.84
2023-02-08T13:25:27.797Z,2.44
2023-02-08T13:26:59.346Z,2.60
2023-02-08T13:28:30.801Z,2.40
2023-02-08T13:30:03.425Z,2.28
2023-02-08T13:31:35.013Z,2.24
2023-02-08T13:33:08.226Z,2.46
2023-02-08T13:34:39.633Z,2.69
2023-02-08T13:36:11.445Z,2.62
2023-02-08T13:38:02.786Z,2.87
2023-02-08T13:39:34.329Z,3.46
2023-02-08T13:41:06.003Z,3.94
2023-02-08T13:44:57.914Z,2.50
2023-02-08T13:48:05.712Z,2.64
2023-02-08T13:49:39.184Z,2.57
2023-02-08T13:51:30.125Z,2.78
2023-02-08T13:53:02.271Z,3.18
2023-02-08T13:54:33.537Z,2.90
2023-02-08T13:58:11.122Z,2.71
2023-02-08T13:59:47.831Z,2.96
2023-02-08T14:01:47.880Z,3.27
2023-02-08T14:03:24.307Z,2.76
2023-02-08T14:04:55.999Z,2.74
2023-02-08T14:06:27.335Z,2.80
2023-02-08T14:07:59.007Z,2.71
2023-02-08T14:09:30.255Z,2.90
2023-02-08T14:11:23.445Z,2.90
2023-02-08T14:13:27.978Z,2.89
2023-02-08T14:15:05.507Z,2.95
2023-02-08T14:16:36.918Z,3.10
2023-02-08T14:20:32.022Z,3.26
2023-02-08T14:22:03.552Z,3.26
2023-02-08T14:23:35.006Z,3.05
2023-02-08T14:25:06.312Z,2.99
2023-02-08T14:27:16.140Z,2.98
2023-02-08T14:28:48.208Z,3.15
2023-02-08T14:30:19.784Z,3.19
2023-02-08T14:31:51.351Z,3.28
2023-02-08T14:33:22.673Z,3.56
2023-02-08T14:35:35.556Z,4.10
2023-02-08T14:37:07.146Z,3.81
2023-02-08T14:38:38.916Z,3.47
2023-02-08T14:40:10.816Z,3.45
2023-02-08T14:41:42.927Z,3.46
2023-02-08T14:43:14.631Z,3.44
2023-02-08T14:44:46.013Z,3.83
2023-02-08T14:46:17.427Z,3.49
2023-02-08T14:47:48.726Z,3.58
2023-02-08T14:49:20.133Z,3.62
2023-02-08T14:50:51.429Z,3.77
2023-02-08T14:52:22.901Z,3.48
2023-02-08T14:53:54.198Z,3.60
2023-02-08T14:55:25.453Z,3.57
2023-02-08T14:56:56.770Z,3.62
2023-02-08T14:58:28.510Z,3.68
2023-02-08T14:59:59.792Z,3.79
2023-02-08T15:01:31.217Z,3.65
2023-02-08T15:03:02.542Z,3.84
2023-02-08T15:04:34.025Z,4.13
2023-02-08T15:06:05.444Z,4.06
2023-02-08T15:07:36.715Z,3.77
2023-02-08T15:09:08.287Z,3.76
2023-02-08T15:10:39.657Z,3.63
2023-02-08T15:12:11.154Z,3.65
2023-02-08T15:13:42.609Z,3.69
2023-02-08T15:15:14.224Z,3.50
2023-02-08T15:16:45.708Z,3.68
2023-02-08T15:18:18.858Z,3.66
2023-02-08T15:19:50.364Z,3.67
2023-02-08T15:21:21.919Z,3.75
2023-02-08T15:22:53.191Z,3.66
2023-02-08T15:24:24.540Z,3.71
2023-02-08T15:25:55.926Z,3.80
2023-02-08T15:27:27.263Z,3.68
2023-02-08T15:29:42.865Z,3.83
2023-02-08T15:31:15.889Z,3.87
2023-02-08T15:32:47.282Z,4.09
2023-02-08T15:34:18.591Z,4.22
2023-02-08T15:35:50.056Z,4.10
2023-02-08T15:37:21.531Z,4.45
2023-02-08T15:38:52.870Z,4.10
2023-02-08T15:40:24.210Z,4.18
2023-02-08T15:41:55.732Z,4.36
2023-02-08T15:43:32.028Z,4.15
2023-02-08T15:45:03.372Z,4.29
2023-02-08T15:46:34.761Z,4.30
2023-02-08T15:48:06.050Z,4.12
2023-02-08T15:49:37.515Z,4.05
2023-02-08T15:51:13.755Z,4.18
2023-02-08T15:52:45.185Z,4.05
2023-02-08T15:54:16.482Z,3.95
2023-02-08T15:55:48.089Z,3.68
2023-02-08T15:57:19.755Z,3.47
2023-02-08T15:58:51.078Z,3.51
2023-02-08T16:00:22.425Z,3.85
2023-02-08T16:02:03.713Z,3.31
2023-02-08T16:03:35.096Z,3.31
2023-02-08T16:05:06.414Z,3.43
2023-02-08T16:06:37.753Z,3.54
2023-02-08T16:08:09.107Z,3.24
2023-02-08T16:09:40.470Z,3.23
2023-02-08T16:11:16.792Z,3.32
2023-02-08T16:12:48.029Z,3.15
2023-02-08T16:14:19.411Z,3.25
2023-02-08T16:16:07.121Z,3.13
2023-02-08T16:17:39.786Z,3.38
2023-02-08T16:19:17.282Z,3.48
2023-02-08T16:20:48.681Z,3.49
2023-02-08T16:22:20.597Z,3.23
2023-02-08T16:23:52.210Z,3.43
2023-02-08T16:25:24.006Z,3.43
2023-02-08T16:26:55.365Z,3.50
2023-02-08T16:28:26.706Z,3.64
2023-02-08T16:30:08.479Z,3.41
2023-02-08T16:31:40.842Z,3.49
2023-02-08T16:33:17.534Z,3.59
2023-02-08T16:35:00.133Z,3.45
2023-02-08T16:36:32.705Z,3.65
2023-02-08T16:38:04.296Z,3.30
2023-02-08T16:39:36.507Z,3.72
2023-02-08T16:41:12.803Z,3.73
2023-02-08T16:43:16.910Z,3.84
2023-02-08T16:44:48.669Z,3.67
2023-02-08T16:46:30.375Z,3.95
2023-02-08T16:48:13.479Z,3.71
2023-02-08T16:49:50.159Z,3.67
2023-02-08T16:51:37.216Z,3.98
2023-02-08T16:53:09.333Z,3.92
2023-02-08T16:54:40.949Z,3.82
2023-02-08T16:56:40.679Z,3.80
2023-02-08T16:58:12.445Z,3.84
2023-02-08T17:00:00.637Z,4.37
2023-02-08T17:01:32.742Z,4.66
2023-02-08T17:03:10.630Z,4.03
2023-02-08T17:04:43.656Z,3.72
2023-02-08T17:06:16.103Z,3.75
2023-02-08T17:07:47.976Z,4.08
2023-02-08T17:09:52.261Z,4.07
2023-02-08T17:11:24.615Z,3.79
2023-02-08T17:13:06.840Z,3.88
2023-02-08T17:14:49.158Z,3.97
2023-02-08T17:16:20.398Z,4.02
2023-02-08T17:18:13.297Z,4.10
2023-02-08T17:19:45.107Z,3.91
2023-02-08T17:21:16.929Z,4.24
2023-02-08T17:22:48.938Z,4.35
2023-02-08T17:24:26.195Z,4.32
2023-02-08T17:25:58.807Z,4.27
2023-02-08T17:27:30.200Z,4.52
2023-02-08T17:29:01.837Z,6.92
2023-02-08T17:30:40.485Z,6.05
2023-02-08T17:32:12.227Z,6.09
2023-02-08T17:33:54.779Z,7.60
2023-02-08T17:35:46.457Z,8.75
2023-02-08T17:37:18.405Z,8.39
2023-02-08T17:38:50.294Z,8.04
2023-02-08T17:40:22.050Z,6.07
2023-02-08T17:41:54.580Z,4.77
2023-02-08T17:43:26.394Z,6.94
2023-02-08T17:44:58.486Z,5.78
2023-02-08T17:46:30.624Z,5.76
2023-02-08T17:48:02.150Z,5.26
2023-02-08T17:49:44.072Z,6.13
2023-02-08T17:51:25.320Z,7.83
2023-02-08T17:52:56.982Z,5.82
2023-02-08T17:54:28.669Z,4.71
2023-02-08T17:56:36.334Z,4.38
2023-02-08T17:58:38.332Z,4.76
2023-02-08T18:00:37.649Z,4.72
2023-02-08T18:02:24.392Z,4.60
2023-02-08T18:04:01.364Z,4.65
2023-02-08T18:05:33.413Z,4.55
2023-02-08T18:07:04.622Z,5.42
2023-02-08T18:09:07.657Z,8.09
2023-02-08T18:10:45.842Z,10.68
2023-02-08T18:12:28.933Z,10.60
2023-02-08T18:14:00.396Z,9.89
2023-02-08T18:15:32.040Z,9.66
2023-02-08T18:17:03.621Z,10.19
2023-02-08T18:18:35.445Z,9.01
2023-02-08T18:20:06.821Z,8.14
2023-02-08T18:21:43.107Z,7.56
2023-02-08T18:23:35.125Z,7.35
2023-02-08T18:25:30.477Z,7.00
2023-02-08T18:27:01.898Z,6.39
2023-02-08T18:28:49.169Z,6.94
2023-02-08T18:30:20.988Z,9.69
2023-02-08T18:31:58.861Z,13.05
2023-02-08T18:33:30.685Z,12.12
2023-02-08T18:35:04.651Z,8.74
2023-02-08T18:36:39.162Z,9.01
2023-02-08T18:38:10.772Z,7.78
2023-02-08T18:40:03.843Z,7.70
2023-02-08T18:41:36.878Z,7.93
2023-02-08T18:43:28.416Z,8.01
2023-02-08T18:45:34.254Z,7.44
2023-02-08T18:47:16.108Z,7.55
2023-02-08T18:49:11.535Z,7.17
2023-02-08T18:50:48.201Z,7.31
2023-02-08T18:53:01.018Z,7.29
2023-02-08T18:54:38.375Z,7.37
2023-02-08T18:56:09.600Z,7.33
2023-02-08T18:57:51.255Z,7.76
2023-02-08T18:59:40.867Z,7.43
2023-02-08T19:01:17.620Z,7.75
2023-02-08T19:02:55.711Z,7.69
2023-02-08T19:04:32.638Z,7.70
2023-02-08T19:06:04.281Z,7.84
2023-02-08T19:07:35.932Z,8.19
2023-02-08T19:09:07.433Z,8.23
2023-02-08T19:10:38.869Z,8.70
2023-02-08T19:12:10.872Z,8.58
2023-02-08T19:13:49.397Z,7.77
2023-02-08T19:15:21.256Z,13.55
2023-02-08T19:16:54.078Z,11.96
2023-02-08T19:19:16.092Z,10.22
2023-02-08T19:20:53.998Z,11.61
2023-02-08T19:22:25.853Z,11.29
2023-02-08T19:23:57.541Z,10.57
2023-02-08T19:25:29.103Z,11.54
2023-02-08T19:27:33.753Z,9.65
2023-02-08T19:29:16.495Z,11.08
2023-02-08T19:30:48.296Z,9.52
2023-02-08T19:32:20.623Z,9.08
2023-02-08T19:34:17.209Z,7.99
2023-02-08T19:35:48.883Z,6.80
2023-02-08T19:37:20.778Z,6.08
2023-02-08T19:38:52.670Z,6.74
2023-02-08T19:40:44.348Z,8.05
2023-02-08T19:42:15.875Z,14.26
2023-02-08T19:43:59.066Z,19.56
2023-02-08T19:45:30.929Z,12.34
2023-02-08T19:47:06.103Z,7.19
2023-02-08T19:48:38.582Z,7.95
2023-02-08T19:50:32.450Z,6.71
2023-02-08T19:52:04.169Z,5.44
2023-02-08T19:53:36.081Z,4.82
2023-02-08T19:55:34.820Z,4.91
2023-02-08T19:57:13.898Z,4.71
2023-02-08T19:58:45.381Z,5.14
2023-02-08T20:00:23.323Z,5.33
2023-02-08T20:01:55.832Z,5.08
2023-02-08T20:03:28.353Z,5.14
2023-02-08T20:05:00.042Z,5.67
2023-02-08T20:06:43.719Z,5.94
2023-02-08T20:08:21.047Z,6.39
2023-02-08T20:09:58.303Z,6.53
2023-02-08T20:11:51.251Z,7.44
2023-02-08T20:13:35.726Z,7.41
2023-02-08T20:15:12.775Z,6.43
2023-02-08T20:16:54.816Z,5.55
2023-02-08T20:18:26.687Z,5.54
2023-02-08T20:19:58.470Z,5.46
2023-02-08T20:21:30.034Z,6.19
2023-02-08T20:23:02.941Z,5.96
2023-02-08T20:24:35.791Z,5.68
2023-02-08T20:26:07.358Z,5.75
2023-02-08T20:28:16.529Z,5.84
2023-02-08T20:29:47.938Z,5.50
2023-02-08T20:31:45.361Z,5.55
2023-02-08T20:33:17.664Z,5.67
2023-02-08T20:34:59.148Z,5.17
2023-02-08T20:36:31.636Z,5.81
2023-02-08T20:38:08.124Z,5.66
2023-02-08T20:40:13.949Z,5.26
2023-02-08T20:41:51.413Z,5.42
2023-02-08T20:43:23.399Z,5.08
2023-02-08T20:45:35.372Z,6.87
2023-02-08T20:47:06.964Z,6.24
2023-02-08T20:48:38.804Z,5.80
2023-02-08T20:50:18.787Z,5.54
2023-02-08T20:52:11.086Z,5.83
2023-02-08T20:53:54.531Z,5.38
2023-02-08T20:55:31.590Z,5.93
2023-02-08T20:57:03.168Z,6.33
2023-02-08T20:58:44.637Z,6.36